EGPF/GLA METAR and TAF weather

Enter ICAO airport designator
Station Type Date Time Source
EGPF METAR 2020/09/27 03:20 UTC NOAA

EGPF 270320Z AUTO 28001KT 0800 FZFG NCD M01/M01 Q1019


Station Type Date Time Source
EGPF Decoded METAR 2020/09/27 03:20 UTC NOAA

Glasgow Airport, United Kingdom (EGPF) 55-52N 004-26W 0M
Sep 26, 2020 - 11:20 PM EDT / 2020.09.27 0320 UTC
Wind: from the W (280 degrees) at 1 MPH (1 KT):0
Visibility: less than 1 mile:0
Weather: freezing fog
Temperature: 30 F (-1 C)
Dew Point: 30 F (-1 C)
Relative Humidity: 100%
Pressure (altimeter): 30.09 in. Hg (1019 hPa)
ob: EGPF 270320Z AUTO 28001KT 0800 FZFG NCD M01/M01 Q1019
cycle: 3

Station Type Date Time Source
EGPF TAF 2020/09/26 18:09 UTC NOAA

TAF EGPF 261656Z 2618/2718 02010KT 9999 FEW035
BECMG 2618/2621 30005KT PROB30
TEMPO 2703/2708 4000 BR MIFG

Example: see airport list